Time;durP1;ratioP1;P1;durP2;ratioP2;P2;SDS_P1;SDS_P2;PMS_P1;PMS_P2;Temp;Humidity;BMP_temperature;BMP_pressure;BME280_temperature;BME280_humidity;BME280_pressure;Samples;Min_cycle;Max_cycle;Signal;HPM_P1;HPM_P2
2021/12/22 00:00:32;;;;;;;60.70;55.73;;;;;;;1.53;100.00;102519.29;1805742;78;86251;-70
2021/12/22 00:06:20;;;;;;;60.93;55.93;;;;;;;1.50;100.00;102513.34;1899336;74;86801;-74
2021/12/22 00:12:07;;;;;;;62.30;57.57;;;;;;;1.36;100.00;102510.89;1921228;73;86576;-74
2021/12/22 00:17:53;;;;;;;61.43;56.53;;;;;;;1.41;100.00;102514.44;1976159;71;40138;-74
2021/12/22 00:23:37;;;;;;;60.93;55.83;;;;;;;1.36;100.00;102517.73;1879761;74;86318;-70
2021/12/22 00:29:23;;;;;;;62.83;57.63;;;;;;;1.44;100.00;102513.55;1872725;75;86814;-77
2021/12/22 00:35:09;;;;;;;62.63;57.60;;;;;;;1.28;100.00;102508.22;1940996;72;86131;-79
2021/12/22 00:40:53;;;;;;;61.93;56.70;;;;;;;1.32;100.00;102504.93;1985546;71;39465;-75
2021/12/22 00:46:37;;;;;;;62.00;57.10;;;;;;;1.30;100.00;102496.55;1827078;76;86614;-71
2021/12/22 00:52:22;;;;;;;59.17;54.43;;;;;;;1.53;100.00;102486.42;1870316;73;86512;-70
2021/12/22 00:58:07;;;;;;;59.87;55.37;;;;;;;1.68;100.00;102490.55;1904425;74;86800;-76
2021/12/22 01:03:52;;;;;;;61.10;56.13;;;;;;;1.61;100.00;102476.77;1984837;71;39672;-69
2021/12/22 01:09:37;;;;;;;59.67;55.27;;;;;;;1.51;100.00;102469.83;1885153;74;85498;-74
2021/12/22 01:15:24;;;;;;;61.43;56.70;;;;;;;1.43;100.00;102469.91;1891083;75;86822;-74
2021/12/22 01:21:15;;;;;;;61.70;57.20;;;;;;;1.44;100.00;102465.63;1903698;74;86374;-70
2021/12/22 01:27:03;;;;;;;63.53;59.03;;;;;;;1.30;100.00;102464.56;1977674;70;39555;-74
2021/12/22 01:32:41;;;;;;;59.73;55.30;;;;;;;1.10;100.00;102464.74;1813010;76;86505;-70
2021/12/22 01:38:27;;;;;;;62.37;57.67;;;;;;;1.16;100.00;102456.29;1883351;74;85588;-70
2021/12/22 01:44:23;;;;;;;60.80;55.93;;;;;;;1.09;100.00;102458.07;1868797;73;86367;-75
2021/12/22 01:49:50;;;;;;;61.13;56.40;;;;;;;1.04;100.00;102468.20;1814858;75;938825;-75
2021/12/22 01:55:37;;;;;;;61.10;56.60;;;;;;;1.19;100.00;102451.84;1807636;78;86313;-78
2021/12/22 02:01:24;;;;;;;59.53;55.30;;;;;;;1.06;100.00;102436.05;1873182;75;86334;-74
2021/12/22 02:07:10;;;;;;;58.80;54.63;;;;;;;0.95;100.00;102430.13;1903951;72;86439;-75
2021/12/22 02:12:56;;;;;;;62.13;57.60;;;;;;;0.86;100.00;102420.63;1977081;70;39626;-77
2021/12/22 02:18:43;;;;;;;62.30;57.63;;;;;;;0.78;100.00;102428.90;1881222;74;86189;-75
2021/12/22 02:24:28;;;;;;;60.73;56.27;;;;;;;0.85;100.00;102431.27;1874682;75;86451;-75
2021/12/22 02:30:21;;;;;;;63.13;58.43;;;;;;;0.63;100.00;102428.52;1907074;74;86427;-70
2021/12/22 02:36:11;;;;;;;60.63;56.10;;;;;;;0.55;100.00;102419.00;1978413;71;39776;-75
2021/12/22 02:41:56;;;;;;;61.13;56.77;;;;;;;0.73;100.00;102424.48;1982914;71;39681;-71
2021/12/22 02:47:41;;;;;;;61.93;57.47;;;;;;;0.80;100.00;102409.07;1848358;76;86525;-70
2021/12/22 02:53:31;;;;;;;58.20;53.50;;;;;;;1.02;100.00;102402.39;1898412;73;86663;-74
2021/12/22 02:59:32;;;;;;;61.67;56.97;;;;;;;0.89;100.00;102416.18;1913000;73;86222;-70
2021/12/22 03:05:03;;;;;;;59.20;54.90;;;;;;;0.86;100.00;102415.67;1948001;71;39631;-78
2021/12/22 03:10:46;;;;;;;60.23;55.73;;;;;;;0.76;100.00;102417.82;1836416;76;85504;-74
2021/12/22 03:16:30;;;;;;;60.40;55.97;;;;;;;0.73;100.00;102412.70;1812869;77;85790;-70
2021/12/22 03:22:18;;;;;;;59.90;55.60;;;;;;;0.68;100.00;102414.64;1907615;72;86498;-70
2021/12/22 03:28:03;;;;;;;61.60;56.90;;;;;;;0.72;100.00;102420.08;1983206;71;39694;-75
2021/12/22 03:33:47;;;;;;;62.60;58.13;;;;;;;0.72;100.00;102420.08;1975927;71;87137;-74
2021/12/22 03:39:32;;;;;;;62.70;57.70;;;;;;;0.35;100.00;102419.96;1809572;78;86333;-74
2021/12/22 03:45:20;;;;;;;58.80;54.50;;;;;;;0.46;100.00;102412.73;1898539;74;86299;-78
2021/12/22 03:51:05;;;;;;;60.60;56.10;;;;;;;0.40;100.00;102398.41;1942930;73;86367;-70
2021/12/22 03:56:50;;;;;;;58.60;54.17;;;;;;;0.44;100.00;102393.77;1890340;74;86252;-75
2021/12/22 04:02:34;;;;;;;58.47;54.17;;;;;;;0.36;100.00;102395.70;1883458;74;86790;-74
2021/12/22 04:08:19;;;;;;;58.90;54.47;;;;;;;0.55;100.00;102381.58;1849864;77;86016;-75
2021/12/22 04:14:04;;;;;;;58.37;54.13;;;;;;;0.55;100.00;102384.31;1912684;72;86765;-79
2021/12/22 04:19:47;;;;;;;58.43;53.90;;;;;;;0.30;100.00;102382.78;1973259;69;85473;-73
2021/12/22 04:25:32;;;;;;;59.13;54.50;;;;;;;0.38;100.00;102376.75;1805813;78;86380;-78
2021/12/22 04:31:17;;;;;;;58.23;53.97;;;;;;;0.51;100.00;102366.58;1915922;73;86068;-75
2021/12/22 04:37:01;;;;;;;58.83;54.33;;;;;;;0.21;100.00;102342.88;1984117;71;40144;-70
2021/12/22 04:42:47;;;;;;;58.57;54.03;;;;;;;0.22;100.00;102337.20;1835739;76;86329;-70
2021/12/22 04:48:34;;;;;;;57.37;53.27;;;;;;;0.23;100.00;102342.16;1808896;78;86216;-74
2021/12/22 04:54:19;;;;;;;60.03;55.40;;;;;;;0.08;100.00;102349.44;1905059;72;85279;-73
2021/12/22 05:00:03;;;;;;;58.93;54.57;;;;;;;-0.16;100.00;102344.43;1916140;73;85573;-74
2021/12/22 05:05:47;;;;;;;58.47;53.97;;;;;;;0.08;100.00;102356.27;1801693;78;86824;-75
2021/12/22 05:11:32;;;;;;;58.63;54.23;;;;;;;0.13;100.00;102353.86;1798143;78;86626;-69
2021/12/22 05:17:20;;;;;;;57.87;53.33;;;;;;;0.12;100.00;102354.36;1936867;73;86271;-76
2021/12/22 05:23:03;;;;;;;56.93;52.53;;;;;;;0.24;100.00;102346.60;1942485;71;86182;-77
2021/12/22 05:28:48;;;;;;;58.17;53.93;;;;;;;0.51;100.00;102338.38;1802235;78;86559;-74
2021/12/22 05:34:32;;;;;;;57.83;53.10;;;;;;;0.51;100.00;102346.07;1807935;78;86431;-70
2021/12/22 05:40:16;;;;;;;60.50;55.60;;;;;;;0.35;100.00;102342.92;1911531;72;86061;-70
2021/12/22 05:46:03;;;;;;;59.33;54.77;;;;;;;-0.01;100.00;102345.91;1973019;71;75309;-73
2021/12/22 05:51:48;;;;;;;58.37;54.17;;;;;;;-0.13;100.00;102338.61;1809113;78;86889;-71
2021/12/22 05:57:32;;;;;;;56.73;52.53;;;;;;;-0.01;100.00;102331.73;1798534;78;86495;-74
2021/12/22 06:03:16;;;;;;;58.10;53.53;;;;;;;-0.03;100.00;102327.46;1920585;73;85865;-73
2021/12/22 06:09:00;;;;;;;56.67;52.47;;;;;;;0.02;100.00;102320.95;1981771;71;40368;-73
2021/12/22 06:14:45;;;;;;;57.40;53.23;;;;;;;0.10;100.00;102318.67;1845620;76;86805;-75
2021/12/22 06:20:31;;;;;;;57.80;53.50;;;;;;;0.26;100.00;102318.05;1894125;74;85408;-74
2021/12/22 06:26:19;;;;;;;57.80;53.00;;;;;;;0.10;100.00;102299.05;1840095;76;86728;-77
2021/12/22 06:32:03;;;;;;;58.90;54.30;;;;;;;0.25;100.00;102299.97;1916626;74;85548;-74
2021/12/22 06:37:48;;;;;;;60.27;55.70;;;;;;;0.36;100.00;102294.58;1809413;77;86257;-74
2021/12/22 06:43:32;;;;;;;57.70;53.20;;;;;;;0.61;100.00;102297.95;1797422;78;86543;-70
2021/12/22 06:49:17;;;;;;;58.23;53.37;;;;;;;0.69;100.00;102286.94;1909303;74;85990;-73
2021/12/22 06:55:00;;;;;;;59.13;54.73;;;;;;;0.61;100.00;102287.87;1981012;71;39682;-73
2021/12/22 07:00:45;;;;;;;58.40;53.80;;;;;;;0.52;100.00;102289.48;1823036;76;86688;-74
2021/12/22 07:06:31;;;;;;;60.87;55.53;;;;;;;0.63;100.00;102274.88;1896163;73;86268;-72
2021/12/22 07:12:14;;;;;;;59.77;54.97;;;;;;;0.53;100.00;102290.67;1915961;72;86617;-77
2021/12/22 07:17:58;;;;;;;60.10;55.33;;;;;;;0.29;100.00;102275.86;1936285;71;39532;-72
2021/12/22 07:23:42;;;;;;;60.20;55.60;;;;;;;0.40;100.00;102284.98;1840745;76;85683;-74
2021/12/22 07:29:26;;;;;;;60.60;55.73;;;;;;;0.51;100.00;102281.83;1870370;75;85607;-74
2021/12/22 07:35:13;;;;;;;60.70;55.87;;;;;;;0.44;100.00;102273.50;1918479;72;86196;-74
2021/12/22 07:44:05;;;;;;;58.90;54.30;;;;;;;0.50;100.00;102274.66;1895850;74;86586;-74
2021/12/22 07:46:35;;;;;;;54.93;50.27;;;;;;;0.50;100.00;102280.63;1796290;78;935054;-74
2021/12/22 07:49:05;;;;;;;56.03;51.53;;;;;;;0.72;100.00;102290.17;1780306;79;938858;-74
2021/12/22 07:54:51;;;;;;;58.83;54.03;;;;;;;0.68;100.00;102292.95;1973542;71;39668;-77
2021/12/22 08:00:35;;;;;;;57.67;53.07;;;;;;;0.59;100.00;102300.89;1881278;75;86999;-68
2021/12/22 08:06:19;;;;;;;57.00;52.60;;;;;;;0.74;100.00;102289.97;1887580;74;86424;-74
2021/12/22 08:12:05;;;;;;;57.47;52.73;;;;;;;0.63;100.00;102300.00;1938937;72;85418;-74
2021/12/22 08:17:50;;;;;;;59.60;54.90;;;;;;;0.77;100.00;102289.08;1957787;71;39659;-71
2021/12/22 08:23:34;;;;;;;59.07;54.40;;;;;;;0.69;100.00;102290.52;1880157;75;86568;-78
2021/12/22 08:29:19;;;;;;;58.80;54.30;;;;;;;0.74;100.00;102285.87;1855260;75;85786;-74
2021/12/22 08:35:06;;;;;;;59.57;54.77;;;;;;;0.79;100.00;102265.14;1916826;74;86766;-70
2021/12/22 08:40:51;;;;;;;57.47;53.27;;;;;;;1.11;100.00;102280.88;1978579;71;39661;-70
2021/12/22 08:46:38;;;;;;;57.03;52.53;;;;;;;1.02;100.00;102268.33;1885422;74;86436;-69
2021/12/22 08:55:38;;;;;;;59.10;54.47;;;;;;;1.48;100.00;102278.03;1836208;75;86383;-78
2021/12/22 09:01:23;;;;;;;58.90;54.40;;;;;;;1.74;100.00;102293.95;1886423;73;85446;-77
2021/12/22 09:07:07;;;;;;;61.70;56.87;;;;;;;1.89;100.00;102298.86;1905928;73;85691;-78
2021/12/22 09:12:50;;;;;;;61.37;56.80;;;;;;;1.56;100.00;102291.61;1955871;71;39635;-74
2021/12/22 09:18:35;;;;;;;59.27;54.70;;;;;;;1.82;100.00;102293.31;1876400;75;86230;-76
2021/12/22 09:24:22;;;;;;;57.27;52.77;;;;;;;1.83;100.00;102288.17;1872137;75;86542;-77
2021/12/22 09:30:08;;;;;;;55.57;51.07;;;;;;;1.89;100.00;102290.64;1913554;73;86280;-76
2021/12/22 09:35:54;;;;;;;58.30;53.77;;;;;;;2.18;100.00;102285.61;1984765;71;39569;-76
2021/12/22 09:41:38;;;;;;;61.23;56.43;;;;;;;2.07;100.00;102279.25;1861004;76;85440;-77
2021/12/22 09:47:28;;;;;;;59.47;54.43;;;;;;;2.13;100.00;102268.89;1879585;73;86474;-79
2021/12/22 09:53:11;;;;;;;60.30;55.03;;;;;;;2.50;100.00;102261.75;1934147;73;86436;-79
2021/12/22 09:58:56;;;;;;;58.37;53.43;;;;;;;2.65;100.00;102244.67;1984953;71;39605;-76
2021/12/22 10:04:41;;;;;;;58.40;53.67;;;;;;;2.84;100.00;102231.30;1978950;69;86620;-71
2021/12/22 10:13:44;;;;;;;60.03;55.30;;;;;;;2.88;100.00;102210.13;1850269;76;86212;-76
2021/12/22 10:19:29;;;;;;;57.23;52.97;;;;;;;3.34;100.00;102201.31;1883044;73;86207;-76
2021/12/22 10:25:17;;;;;;;56.57;52.20;;;;;;;3.63;100.00;102192.75;1933339;73;86550;-78
2021/12/22 10:31:02;;;;;;;56.70;51.77;;;;;;;3.86;100.00;102182.75;1975923;71;40735;-75
2021/12/22 10:36:50;;;;;;;54.43;50.20;;;;;;;4.11;100.00;102169.56;1809553;78;86407;-75
2021/12/22 10:42:43;;;;;;;57.30;52.90;;;;;;;4.13;100.00;102161.12;1826684;76;85775;-75
2021/12/22 10:54:40;;;;;;;60.90;56.07;;;;;;;3.98;100.00;102128.87;1825422;76;86538;-73
2021/12/22 11:00:27;;;;;;;59.87;54.97;;;;;;;4.15;100.00;102122.42;1869529;75;86611;-70
2021/12/22 11:06:24;;;;;;;59.47;54.83;;;;;;;4.02;100.00;102126.02;1827052;78;86474;-76
2021/12/22 11:12:13;;;;;;;60.87;55.97;;;;;;;4.24;100.00;102112.34;1901626;72;86336;-75
2021/12/22 11:17:57;;;;;;;58.73;53.97;;;;;;;4.40;100.00;102091.30;1939039;71;39497;-76
2021/12/22 11:23:41;;;;;;;59.77;55.03;;;;;;;4.57;100.00;102077.39;1837942;76;86159;-75
2021/12/22 11:29:27;;;;;;;60.80;56.30;;;;;;;4.69;100.00;102058.83;1881702;74;85879;-71
2021/12/22 11:35:13;;;;;;;59.43;55.20;;;;;;;4.74;100.00;102051.62;1915942;73;85500;-75
2021/12/22 11:41:10;;;;;;;62.03;57.30;;;;;;;4.81;100.00;102024.05;1938849;71;40366;-79
2021/12/22 11:46:52;;;;;;;59.73;55.03;;;;;;;4.80;100.00;102003.94;1978786;71;39663;-78
2021/12/22 11:52:43;;;;;;;59.60;55.43;;;;;;;4.96;100.00;101999.84;1858916;76;85453;-77
2021/12/22 11:58:30;;;;;;;61.07;56.67;;;;;;;5.07;100.00;101993.63;1876045;73;86049;-73
2021/12/22 12:04:19;;;;;;;58.77;54.23;;;;;;;5.18;100.00;101979.70;1873767;75;86098;-69
2021/12/22 12:10:46;;;;;;;57.90;53.67;;;;;;;5.16;100.00;101965.30;1831886;77;86589;-69
2021/12/22 12:22:44;;;;;;;58.67;54.40;;;;;;;5.30;100.00;101942.95;1836849;76;86427;-73
2021/12/22 12:28:29;;;;;;;59.43;55.30;;;;;;;5.38;100.00;101933.56;1880537;74;86666;-68
2021/12/22 12:34:24;;;;;;;59.23;55.10;;;;;;;5.39;100.00;101915.41;1918130;72;86178;-74
2021/12/22 12:40:09;;;;;;;58.87;54.87;;;;;;;5.49;100.00;101893.70;1944565;73;86125;-69
2021/12/22 12:46:35;;;;;;;58.43;54.33;;;;;;;5.61;100.00;101879.16;1937530;72;86279;-71
2021/12/22 12:52:48;;;;;;;60.33;56.23;;;;;;;5.65;100.00;101868.03;1808865;78;86265;-75
2021/12/22 12:58:33;;;;;;;60.20;55.87;;;;;;;5.65;100.00;101866.65;1898794;74;86152;-68
2021/12/22 13:04:23;;;;;;;59.33;54.70;;;;;;;5.68;100.00;101870.31;1903520;74;86466;-74
2021/12/22 13:10:14;;;;;;;59.70;55.53;;;;;;;5.73;100.00;101856.70;1908306;73;86398;-75
2021/12/22 13:15:59;;;;;;;60.77;56.67;;;;;;;5.72;100.00;101843.45;1984637;71;39428;-76
2021/12/22 13:21:44;;;;;;;59.30;55.07;;;;;;;5.78;100.00;101823.22;1853923;76;85339;-76
2021/12/22 13:27:35;;;;;;;59.27;55.33;;;;;;;6.00;100.00;101817.27;1878351;74;86707;-77
2021/12/22 13:33:28;;;;;;;57.10;53.23;;;;;;;5.96;100.00;101821.02;1882805;73;86147;-78
2021/12/22 13:39:14;;;;;;;60.03;55.73;;;;;;;5.97;100.00;101792.38;1910525;73;86808;-76
2021/12/22 13:44:58;;;;;;;57.77;53.90;;;;;;;5.94;100.00;101782.67;1978930;71;39491;-70
2021/12/22 13:50:50;;;;;;;58.70;54.50;;;;;;;6.01;100.00;101781.72;1808222;78;85477;-75
2021/12/22 13:56:37;;;;;;;57.60;53.50;;;;;;;6.09;100.00;101795.19;1884380;74;86325;-75
2021/12/22 14:02:36;;;;;;;59.00;54.63;;;;;;;6.03;100.00;101780.44;1884915;75;86747;-75
2021/12/22 14:08:30;;;;;;;56.57;52.80;;;;;;;6.03;100.00;101751.47;1806086;78;86328;-75
2021/12/22 14:14:25;;;;;;;57.53;53.33;;;;;;;6.02;100.00;101729.09;1924938;73;86867;-75
2021/12/22 14:20:24;;;;;;;56.00;52.20;;;;;;;5.98;100.00;101711.87;1865043;75;86344;-75
2021/12/22 14:26:12;;;;;;;59.13;55.20;;;;;;;6.00;100.00;101736.75;1918903;71;86968;-76
2021/12/22 14:32:01;;;;;;;58.00;53.77;;;;;;;6.03;100.00;101716.16;1980079;71;39681;-74
2021/12/22 14:37:49;;;;;;;61.17;56.47;;;;;;;5.97;100.00;101719.83;1976956;71;86471;-75
2021/12/22 14:43:39;;;;;;;56.93;53.03;;;;;;;6.06;100.00;101724.80;1880482;74;86566;-75
2021/12/22 14:49:26;;;;;;;59.60;55.23;;;;;;;6.03;100.00;101707.34;1880001;74;86311;-74
2021/12/22 14:51:59;;;;;;;57.47;52.67;;;;;;;6.01;100.00;101712.24;1833775;75;936011;-69
2021/12/22 14:57:43;;;;;;;59.60;55.23;;;;;;;6.07;100.00;101696.15;1826632;75;86691;-74
2021/12/22 15:03:28;;;;;;;58.40;54.30;;;;;;;5.97;100.00;101692.26;1893279;73;86478;-70
2021/12/22 15:09:13;;;;;;;58.70;54.37;;;;;;;5.97;100.00;101711.56;1945472;72;85562;-75
2021/12/22 15:14:56;;;;;;;62.00;57.50;;;;;;;5.84;100.00;101707.89;1984521;71;39566;-69
2021/12/22 15:20:40;;;;;;;59.53;55.13;;;;;;;5.79;100.00;101709.65;1847081;76;85568;-75
2021/12/22 15:26:25;;;;;;;62.47;57.87;;;;;;;5.82;100.00;101703.12;1882970;73;86271;-72
2021/12/22 15:32:11;;;;;;;62.90;58.13;;;;;;;5.66;100.00;101702.40;1906576;74;86776;-76
2021/12/22 15:37:55;;;;;;;63.83;58.83;;;;;;;5.58;100.00;101690.32;1977211;71;39454;-75
2021/12/22 15:43:40;;;;;;;65.20;60.77;;;;;;;5.61;100.00;101681.58;1823756;76;86509;-74
2021/12/22 15:49:23;;;;;;;64.43;59.60;;;;;;;5.40;100.00;101683.44;1828224;78;87085;-71
2021/12/22 15:55:09;;;;;;;67.00;61.90;;;;;;;5.45;100.00;101676.17;1910843;73;86640;-71
2021/12/22 16:00:56;;;;;;;65.40;60.37;;;;;;;5.57;100.00;101660.23;1974512;71;39632;-71
2021/12/22 16:06:40;;;;;;;66.67;61.97;;;;;;;5.61;100.00;101666.42;1945163;72;85691;-71
2021/12/22 16:12:23;;;;;;;64.33;59.57;;;;;;;5.46;100.00;101680.63;1895678;75;86191;-75
2021/12/22 16:18:09;;;;;;;65.83;61.03;;;;;;;5.50;100.00;101690.64;1914343;74;85610;-76
2021/12/22 16:23:53;;;;;;;61.17;56.67;;;;;;;5.55;100.00;101691.33;1984962;71;40023;-76
2021/12/22 16:29:39;;;;;;;62.90;58.40;;;;;;;5.39;100.00;101707.95;1846708;76;87117;-77
2021/12/22 16:35:24;;;;;;;63.07;58.37;;;;;;;5.35;100.00;101706.70;1788966;79;85915;-69
2021/12/22 16:41:08;;;;;;;64.30;59.70;;;;;;;4.97;100.00;101719.30;1940203;73;86788;-69
2021/12/22 16:46:53;;;;;;;66.83;61.23;;;;;;;4.85;100.00;101707.36;1982626;71;39811;-69
2021/12/22 16:52:37;;;;;;;67.23;62.33;;;;;;;4.93;100.00;101695.52;1832502;76;86845;-69
2021/12/22 16:58:23;;;;;;;64.93;60.03;;;;;;;4.73;100.00;101694.88;1863947;75;86739;-70
2021/12/22 17:04:09;;;;;;;65.03;60.17;;;;;;;4.79;100.00;101686.27;1928210;72;86456;-72
2021/12/22 17:09:53;;;;;;;65.50;60.27;;;;;;;4.90;100.00;101691.01;1949187;72;39452;-75
2021/12/22 17:15:37;;;;;;;66.17;61.33;;;;;;;5.15;100.00;101685.44;1884461;74;85481;-75
2021/12/22 17:21:22;;;;;;;65.93;60.90;;;;;;;4.84;100.00;101680.89;1882820;73;86327;-76
2021/12/22 17:27:06;;;;;;;67.40;62.20;;;;;;;4.97;100.00;101671.13;1910495;74;86499;-74
2021/12/22 17:32:52;;;;;;;69.10;63.70;;;;;;;4.77;100.00;101658.11;1984682;71;39600;-72
2021/12/22 17:38:36;;;;;;;71.73;65.93;;;;;;;4.59;100.00;101650.13;1846771;76;86225;-73
2021/12/22 17:44:21;;;;;;;66.83;61.33;;;;;;;4.85;100.00;101657.28;1884971;75;86215;-73
2021/12/22 17:50:08;;;;;;;73.10;67.07;;;;;;;5.01;100.00;101648.41;1934332;73;86302;-74
2021/12/22 17:55:53;;;;;;;70.70;64.63;;;;;;;4.71;100.00;101660.38;1954982;71;39691;-72
2021/12/22 18:01:38;;;;;;;69.50;63.80;;;;;;;4.87;100.00;101642.77;1832393;76;86344;-70
2021/12/22 18:07:23;;;;;;;72.03;66.07;;;;;;;5.00;100.00;101630.77;1872003;75;86703;-74
2021/12/22 18:13:07;;;;;;;72.83;66.77;;;;;;;5.08;100.00;101642.85;1905821;72;87090;-68
2021/12/22 18:18:52;;;;;;;70.83;65.03;;;;;;;5.08;100.00;101647.52;1978332;71;39527;-76
2021/12/22 18:24:37;;;;;;;70.47;64.27;;;;;;;5.04;100.00;101644.38;1825945;76;87332;-74
2021/12/22 18:30:23;;;;;;;74.20;68.00;;;;;;;5.01;100.00;101634.64;1876132;75;85485;-75
2021/12/22 18:36:09;;;;;;;72.87;66.20;;;;;;;5.05;100.00;101622.10;1917605;72;85641;-74
2021/12/22 18:41:54;;;;;;;72.27;65.73;;;;;;;5.01;100.00;101620.88;1975035;70;40299;-76
2021/12/22 18:47:39;;;;;;;74.67;68.27;;;;;;;4.93;100.00;101612.94;1851466;75;86552;-71
2021/12/22 18:53:25;;;;;;;76.17;69.77;;;;;;;4.83;100.00;101616.77;1883088;73;86207;-70
2021/12/22 18:59:10;;;;;;;76.83;70.20;;;;;;;4.96;100.00;101632.30;1907597;72;85296;-70
2021/12/22 19:04:54;;;;;;;77.43;70.27;;;;;;;4.86;100.00;101630.07;1946320;71;39675;-74
2021/12/22 19:10:39;;;;;;;79.63;72.37;;;;;;;4.87;100.00;101657.06;1842488;75;86434;-71
2021/12/22 19:16:24;;;;;;;79.57;72.40;;;;;;;4.96;100.00;101661.20;1884939;73;86875;-73
2021/12/22 19:22:08;;;;;;;81.57;73.80;;;;;;;4.61;100.00;101642.19;1925994;72;85889;-74
2021/12/22 19:27:52;;;;;;;81.83;74.40;;;;;;;4.75;100.00;101649.27;1977828;71;39644;-71
2021/12/22 19:33:37;;;;;;;80.53;73.10;;;;;;;4.55;100.00;101624.67;1824612;76;86116;-70
2021/12/22 19:39:21;;;;;;;79.27;72.00;;;;;;;4.36;100.00;101621.06;1898451;74;86407;-72
2021/12/22 19:45:08;;;;;;;80.07;72.43;;;;;;;4.44;100.00;101627.65;1925637;73;86792;-71
2021/12/22 19:50:52;;;;;;;81.43;74.10;;;;;;;4.47;100.00;101634.06;1985216;71;39488;-72
2021/12/22 19:56:37;;;;;;;79.00;71.37;;;;;;;4.48;100.00;101622.53;1836034;75;86596;-73
2021/12/22 20:02:21;;;;;;;83.10;75.20;;;;;;;4.57;100.00;101617.05;1875289;75;86083;-75
2021/12/22 20:08:07;;;;;;;82.90;75.00;;;;;;;4.79;100.00;101603.70;1935467;72;86555;-72
2021/12/22 20:13:50;;;;;;;80.93;72.97;;;;;;;4.91;100.00;101594.45;1930572;70;39687;-70
2021/12/22 20:19:34;;;;;;;78.73;71.23;;;;;;;5.09;100.00;101594.12;1887258;74;86356;-70
2021/12/22 20:25:22;;;;;;;83.17;75.37;;;;;;;5.14;100.00;101594.25;1877096;74;86355;-71
2021/12/22 20:31:07;;;;;;;79.00;71.00;;;;;;;5.14;100.00;101597.84;1923167;71;86491;-76
2021/12/22 20:36:51;;;;;;;79.43;71.93;;;;;;;5.20;100.00;101598.84;1983195;71;39640;-76
2021/12/22 20:42:36;;;;;;;80.80;72.90;;;;;;;5.25;100.00;101594.87;1888127;74;86456;-75
2021/12/22 20:48:24;;;;;;;82.27;74.20;;;;;;;5.20;100.00;101583.16;1875417;75;85922;-73
2021/12/22 20:54:09;;;;;;;84.50;75.97;;;;;;;5.24;100.00;101571.98;1910476;74;86384;-70
2021/12/22 20:59:53;;;;;;;80.63;72.60;;;;;;;5.27;100.00;101561.88;1982880;71;39728;-76
2021/12/22 21:05:39;;;;;;;84.27;76.00;;;;;;;5.36;100.00;101548.62;1845513;76;85225;-76
2021/12/22 21:11:23;;;;;;;81.10;73.43;;;;;;;5.25;100.00;101554.40;1879050;73;86859;-77
2021/12/22 21:17:09;;;;;;;81.57;73.27;;;;;;;5.30;100.00;101549.03;1944455;73;86270;-70
2021/12/22 21:22:54;;;;;;;80.87;72.53;;;;;;;5.28;100.00;101553.08;1980097;71;39524;-75
2021/12/22 21:28:38;;;;;;;82.17;73.67;;;;;;;5.30;100.00;101551.79;1845227;76;86262;-71
2021/12/22 21:34:23;;;;;;;79.23;71.13;;;;;;;5.25;100.00;101544.76;1841507;76;86681;-73
2021/12/22 21:40:11;;;;;;;83.13;74.33;;;;;;;5.29;100.00;101543.75;1912580;72;86020;-75
2021/12/22 21:45:56;;;;;;;81.53;73.60;;;;;;;5.36;100.00;101531.55;1934211;71;39741;-74
2021/12/22 21:51:40;;;;;;;85.00;76.63;;;;;;;5.38;100.00;101523.91;1834708;76;85493;-75
2021/12/22 21:57:24;;;;;;;82.53;74.93;;;;;;;5.38;100.00;101512.89;1903890;73;86603;-74
2021/12/22 22:03:09;;;;;;;83.27;75.37;;;;;;;5.37;100.00;101507.07;1910623;74;86472;-74
2021/12/22 22:08:53;;;;;;;83.23;75.17;;;;;;;5.35;100.00;101500.09;1900329;70;39499;-74
2021/12/22 22:14:36;;;;;;;85.93;77.43;;;;;;;5.37;100.00;101489.16;1838948;76;87132;-74
2021/12/22 22:20:23;;;;;;;82.33;74.07;;;;;;;5.34;100.00;101493.78;1880294;75;86302;-75
2021/12/22 22:26:07;;;;;;;85.03;77.10;;;;;;;5.42;100.00;101503.08;1911242;73;86804;-71
2021/12/22 22:31:51;;;;;;;83.03;75.10;;;;;;;5.38;100.00;101487.25;1985162;71;39801;-74
2021/12/22 22:37:36;;;;;;;87.60;79.03;;;;;;;5.40;100.00;101488.69;1825527;76;86248;-73
2021/12/22 22:43:22;;;;;;;82.10;74.00;;;;;;;5.35;100.00;101477.53;1870798;75;85565;-76
2021/12/22 22:49:06;;;;;;;84.50;76.90;;;;;;;5.37;100.00;101462.16;1938038;73;85477;-76
2021/12/22 22:54:50;;;;;;;82.57;74.97;;;;;;;5.40;100.00;101463.05;1973736;71;39465;-69
2021/12/22 23:00:37;;;;;;;85.77;77.90;;;;;;;5.43;100.00;101457.09;1886766;74;86299;-72
2021/12/22 23:06:21;;;;;;;85.47;77.27;;;;;;;5.45;100.00;101453.54;1886940;74;86427;-71
2021/12/22 23:12:05;;;;;;;81.63;73.70;;;;;;;5.49;100.00;101435.45;1921445;72;86561;-73
2021/12/22 23:17:51;;;;;;;82.13;74.83;;;;;;;5.47;100.00;101426.07;1956496;71;39578;-74
2021/12/22 23:23:37;;;;;;;80.60;72.63;;;;;;;5.47;100.00;101419.19;1875799;74;86565;-74
2021/12/22 23:29:21;;;;;;;81.90;74.30;;;;;;;5.45;100.00;101420.48;1877945;74;86280;-74
2021/12/22 23:35:11;;;;;;;80.63;73.03;;;;;;;5.48;100.00;101414.48;1911669;74;86675;-70
2021/12/22 23:41:01;;;;;;;80.40;72.90;;;;;;;5.52;100.00;101396.40;1985178;71;39706;-74
2021/12/22 23:52:43;;;;;;;83.20;75.60;;;;;;;5.42;100.00;101393.41;1846008;76;86601;-74
2021/12/22 23:58:29;;;;;;;82.33;74.50;;;;;;;5.52;100.00;101386.75;1891496;73;86596;-69
